createdAt,value
2022-12-20T00:09:57.731Z,60.81
2022-12-20T00:19:59.407Z,61.38
2022-12-20T00:30:00.907Z,61.38
2022-12-20T00:40:04.938Z,60.95
2022-12-20T00:50:11.644Z,61.21
2022-12-20T01:00:13.603Z,61.31
2022-12-20T01:10:15.706Z,62.16
2022-12-20T01:20:17.295Z,61.23
2022-12-20T01:30:18.911Z,60.99
2022-12-20T01:40:20.911Z,61.72
2022-12-20T01:50:24.085Z,62.13
2022-12-20T02:00:25.729Z,61.90
2022-12-20T02:10:44.754Z,61.67
2022-12-20T02:21:05.391Z,61.56
2022-12-20T02:31:13.218Z,60.94
2022-12-20T02:41:30.382Z,61.66
2022-12-20T02:51:33.358Z,61.17
2022-12-20T03:01:44.783Z,61.60
2022-12-20T03:11:46.446Z,61.05
2022-12-20T03:21:48.209Z,60.98
2022-12-20T03:31:49.859Z,60.91
2022-12-20T03:41:51.554Z,61.05
2022-12-20T03:51:53.709Z,60.82
2022-12-20T04:01:55.522Z,60.84
2022-12-20T04:11:57.259Z,60.79
2022-12-20T04:22:04.589Z,60.41
2022-12-20T04:32:20.461Z,60.67
2022-12-20T04:42:22.943Z,61.10
2022-12-20T04:52:47.963Z,61.28
2022-12-20T05:02:51.463Z,61.56
2022-12-20T05:12:55.311Z,61.54
2022-12-20T05:23:28.070Z,61.56
2022-12-20T05:33:38.505Z,61.79
2022-12-20T05:43:40.485Z,61.45
2022-12-20T05:53:42.518Z,61.45
2022-12-20T06:03:45.819Z,61.80
2022-12-20T06:13:50.747Z,61.36
2022-12-20T06:23:53.041Z,61.79
2022-12-20T06:33:55.694Z,61.76
2022-12-20T06:44:00.415Z,61.75
2022-12-20T06:54:02.319Z,61.73
2022-12-20T07:04:07.137Z,61.17
2022-12-20T07:14:08.680Z,60.95
2022-12-20T07:24:10.401Z,61.67
2022-12-20T07:34:11.947Z,61.67
2022-12-20T07:44:13.777Z,61.20
2022-12-20T07:54:26.781Z,61.24
2022-12-20T08:04:30.858Z,60.90
2022-12-20T08:14:32.323Z,60.36
2022-12-20T08:24:34.558Z,60.11
2022-12-20T08:34:36.269Z,59.74
2022-12-20T08:44:37.739Z,59.10
2022-12-20T08:54:39.216Z,58.51
2022-12-20T09:04:40.699Z,58.15
2022-12-20T09:14:42.447Z,57.15
2022-12-20T09:24:44.214Z,57.13
2022-12-20T09:34:47.321Z,57.08
2022-12-20T09:44:49.074Z,56.21
2022-12-20T09:55:06.549Z,55.23
2022-12-20T10:05:15.640Z,54.80
2022-12-20T10:15:28.953Z,53.05
2022-12-20T10:25:33.212Z,51.19
2022-12-20T10:35:40.793Z,49.72
2022-12-20T10:45:43.577Z,48.95
2022-12-20T10:55:45.196Z,49.65
2022-12-20T11:06:04.477Z,48.27
2022-12-20T11:16:06.415Z,47.75
2022-12-20T11:26:40.563Z,48.33
2022-12-20T11:37:03.996Z,48.91
2022-12-20T11:47:23.726Z,49.17
2022-12-20T11:57:48.355Z,49.57
2022-12-20T12:08:04.200Z,48.94
2022-12-20T12:18:17.768Z,49.60
2022-12-20T12:28:22.539Z,50.04
2022-12-20T12:38:33.208Z,50.35
2022-12-20T12:48:59.786Z,49.93
2022-12-20T12:59:07.356Z,50.98
2022-12-20T13:09:11.474Z,50.60
2022-12-20T13:19:35.928Z,50.30
2022-12-20T13:29:52.871Z,50.90
2022-12-20T13:39:55.576Z,52.28
2022-12-20T13:50:01.826Z,52.96
2022-12-20T14:00:07.623Z,53.22
2022-12-20T14:10:20.776Z,53.50
2022-12-20T14:20:35.106Z,54.43
2022-12-20T14:30:44.339Z,53.67
2022-12-20T14:40:53.623Z,54.74
2022-12-20T14:50:55.577Z,56.65
2022-12-20T15:01:14.853Z,56.11
2022-12-20T15:11:22.853Z,55.99
2022-12-20T15:21:32.976Z,56.59
2022-12-20T15:31:36.070Z,56.98
2022-12-20T15:41:39.936Z,57.05
2022-12-20T15:51:44.264Z,58.52
2022-12-20T16:01:46.027Z,58.35
2022-12-20T16:11:47.945Z,58.46
2022-12-20T16:21:52.298Z,58.63
2022-12-20T16:31:53.882Z,58.47
2022-12-20T16:41:55.385Z,58.78
2022-12-20T16:51:56.921Z,59.05
2022-12-20T17:01:58.571Z,59.37
2022-12-20T17:12:00.253Z,60.05
2022-12-20T17:32:25.642Z,61.35
2022-12-20T17:42:31.546Z,60.12
2022-12-20T17:52:33.335Z,60.17
2022-12-20T18:02:34.931Z,60.65
2022-12-20T18:12:37.734Z,61.23
2022-12-20T18:22:39.427Z,60.63
2022-12-20T18:32:41.230Z,61.79
2022-12-20T18:42:42.690Z,61.68
2022-12-20T18:52:46.072Z,61.27
2022-12-20T19:02:49.055Z,62.68
2022-12-20T19:12:50.656Z,62.21
2022-12-20T19:22:55.269Z,62.83
2022-12-20T19:32:56.752Z,62.79
2022-12-20T19:42:58.275Z,62.92
2022-12-20T19:52:59.848Z,63.26
2022-12-20T20:03:01.452Z,62.89
2022-12-20T20:13:04.026Z,62.31
2022-12-20T20:23:05.464Z,62.75
2022-12-20T20:33:08.333Z,62.85
2022-12-20T20:43:09.804Z,62.42
2022-12-20T20:53:12.025Z,62.52
2022-12-20T21:03:13.527Z,62.13
2022-12-20T21:13:15.694Z,62.35
2022-12-20T21:23:17.096Z,62.46
2022-12-20T21:33:18.544Z,62.25
2022-12-20T21:43:19.976Z,62.01
2022-12-20T21:53:21.433Z,62.38
2022-12-20T22:03:24.721Z,62.53
2022-12-20T22:13:27.116Z,62.56
2022-12-20T22:23:28.574Z,62.03
2022-12-20T22:33:29.986Z,62.82
2022-12-20T22:43:31.699Z,62.52
2022-12-20T22:53:34.048Z,61.74
2022-12-20T23:03:37.147Z,61.45
2022-12-20T23:13:58.359Z,61.33
2022-12-20T23:23:59.789Z,62.91
2022-12-20T23:34:01.991Z,62.84
2022-12-20T23:44:04.928Z,62.59
2022-12-20T23:54:06.359Z,62.24
